Latest Weather Observations for Thargomindah

IDQ60801

Issued at 6:02 pm EST Tuesday 28 February 2017 (issued every 30 minutes, with the page automatically refreshed every 10 minutes)

About weather observations | Map of weather stations | Latest weather observations for QLD | Other Formats
Station Details ID: 045025 Name: THARGOMINDAH AIRPORT Lat: -27.99 Lon: 143.81 Height: 130.89 m
Data from the previous 72 hours. | See also: Recent months at Thargomindah
Date/Time
EST
Temp
°C
App
Temp
°C
Dew
Point
°C
Rel
Hum
%
Delta-T
°C
Wind Press
QNH
hPa
Press
MSL
hPa
Rain since
9am
mm
Dir  Spd
km/h
Gust
km/h
Spd
kts
Gust
kts
28/06:00pm 34.7 30.4 5.2 16 15.9 ESE 17 26 9 14 1012.4 - 0.0
28/05:30pm 35.3 30.3 4.8 15 16.4 ESE 20 33 11 18 1012.2 - 0.0
28/05:00pm 35.2 30.8 4.7 15 16.3 S 17 22 9 12 1012.1 - 0.0
28/04:30pm 35.1 29.5 5.5 16 16.1 SE 24 32 13 17 1012.2 - 0.0
28/04:00pm 35.7 31.4 5.1 15 16.5 E 17 30 9 16 1012.3 - 0.0
28/03:30pm 35.8 31.5 5.1 15 16.6 E 17 26 9 14 1012.5 - 0.0
28/03:00pm 35.8 31.5 5.1 15 16.6 SE 17 24 9 13 1012.7 - 0.0
28/02:30pm 35.4 31.4 4.8 15 16.4 SE 15 33 8 18 1013.0 - 0.0
28/02:00pm 35.3 31.3 4.8 15 16.4 ESE 15 26 8 14 1013.3 - 0.0
28/01:30pm 34.7 30.4 5.2 16 15.9 E 17 28 9 15 1013.7 - 0.0
28/01:00pm 35.0 31.7 6.3 17 15.8 E 13 32 7 17 1014.1 - 0.0
28/12:30pm 34.1 30.4 4.7 16 15.7 ENE 13 24 7 13 1014.6 - 0.0
28/12:00pm 33.4 28.5 4.2 16 15.4 ENE 19 26 10 14 1015.0 - 0.0
28/11:30am 33.1 28.5 3.9 16 15.3 ESE 17 32 9 17 1015.3 - 0.0
28/11:00am 33.7 29.6 6.1 18 15.0 E 17 28 9 15 1015.7 - 0.0
28/10:30am 32.8 29.0 7.6 21 14.0 E 17 26 9 14 1016.1 - 0.0
28/10:00am 31.6 27.5 8.6 24 12.9 E 20 26 11 14 1016.3 - 0.0
28/09:30am 30.9 27.5 9.2 26 12.2 ENE 17 26 9 14 1016.4 - 0.0
28/09:00am 30.3 26.3 9.2 27 11.9 E 20 28 11 15 1016.3 - 0.0
28/08:30am 29.5 25.7 9.1 28 11.4 ENE 19 24 10 13 1016.2 - 0.0
28/08:00am 28.3 24.8 8.6 29 10.8 ENE 17 20 9 11 1016.0 - 0.0
28/07:30am 26.8 23.4 7.8 30 10.2 E 15 20 8 11 1015.7 - 0.0
28/07:00am 25.5 22.5 7.6 32 9.5 E 13 19 7 10 1015.5 - 0.0
28/06:30am 24.7 22.0 7.4 33 9.2 E 11 13 6 7 1015.2 - 0.0
28/06:00am 24.5 21.8 7.2 33 9.1 E 11 15 6 8 1015.0 - 0.0
28/05:30am 24.9 22.1 7.1 32 9.4 E 11 13 6 7 1014.6 - 0.0
28/05:00am 25.3 22.5 7.0 31 9.6 E 11 15 6 8 1014.4 - 0.0
28/04:30am 25.8 23.0 6.9 30 10.0 E 11 13 6 7 1014.1 - 0.0
28/04:00am 26.5 23.6 6.5 28 10.5 E 11 17 6 9 1014.0 - 0.0
28/03:30am 26.8 23.8 6.2 27 10.8 E 11 17 6 9 1013.8 - 0.0
28/03:00am 27.4 23.7 6.2 26 11.2 E 15 20 8 11 1013.8 - 0.0
28/02:30am 28.0 23.9 6.2 25 11.5 E 17 20 9 11 1013.8 - 0.0
28/02:00am 28.4 24.2 5.9 24 11.8 E 17 22 9 12 1014.0 - 0.0
28/01:30am 28.9 24.3 5.7 23 12.2 E 19 28 10 15 1014.1 - 0.0
28/01:00am 29.0 24.4 5.8 23 12.2 E 19 22 10 12 1014.2 - 0.0
28/12:30am 29.2 25.3 5.3 22 12.5 E 15 20 8 11 1014.3 - 0.0
28/12:00am 29.7 25.9 5.7 22 12.7 E 15 20 8 11 1014.4 - 0.0
 
Date/Time
EST
Temp
°C
App
Temp
°C
Dew
Point
°C
Rel
Hum
%
Delta-T
°C
Wind Press
QNH
hPa
Press
MSL
hPa
Rain since
9am
mm
Dir  Spd
km/h
Gust
km/h
Spd
kts
Gust
kts
27/11:30pm 30.1 26.6 5.4 21 13.0 E 13 17 7 9 1014.4 - 0.0
27/11:00pm 30.8 26.9 5.3 20 13.5 E 15 22 8 12 1014.2 - 0.0
27/10:30pm 31.3 26.9 4.9 19 13.9 E 17 26 9 14 1014.2 - 0.0
27/10:00pm 31.6 28.0 5.2 19 14.0 ESE 13 19 7 10 1014.1 - 0.0
27/09:30pm 32.1 28.1 4.8 18 14.4 ESE 15 19 8 10 1013.9 - 0.0
27/09:00pm 32.6 28.7 5.2 18 14.6 ESE 15 20 8 11 1013.5 - 0.0
27/08:30pm 33.3 28.6 5.0 17 15.1 ESE 19 26 10 14 1013.2 - 0.0
27/08:00pm 33.6 28.7 4.3 16 15.5 ESE 19 28 10 15 1012.9 - 0.0
27/07:30pm 34.0 30.1 5.5 17 15.4 ESE 15 20 8 11 1012.6 - 0.0
27/07:00pm 34.4 30.0 5.0 16 15.8 E 17 20 9 11 1012.2 - 0.0
27/06:30pm 35.2 31.2 4.7 15 16.3 ESE 15 24 8 13 1011.9 - 0.0
27/06:00pm 35.9 30.6 5.2 15 16.6 E 22 33 12 18 1011.7 - 0.0
27/05:30pm 35.6 30.7 5.0 15 16.5 ESE 20 30 11 16 1011.6 - 0.0
27/05:00pm 36.3 31.5 5.5 15 16.8 ESE 20 30 11 16 1011.5 - 0.0
27/04:30pm 37.0 33.0 5.1 14 17.4 ESE 15 32 8 17 1011.5 - 0.0
27/04:00pm 36.9 32.4 6.0 15 17.0 E 19 30 10 16 1011.6 - 0.0
27/03:30pm 37.1 33.6 7.1 16 16.8 E 15 28 8 15 1011.8 - 0.0
27/03:00pm 36.4 32.8 6.6 16 16.6 E 15 30 8 16 1012.0 - 0.0
27/02:30pm 37.0 32.7 7.0 16 16.8 ESE 19 30 10 16 1012.4 - 0.0
27/02:00pm 36.1 31.1 8.0 18 15.9 ENE 24 30 13 16 1012.8 - 0.0
27/01:30pm 35.7 31.8 9.3 20 15.2 E 20 33 11 18 1013.2 - 0.0
27/01:00pm 35.5 32.5 10.5 22 14.7 E 17 32 9 17 1013.6 - 0.0
27/12:30pm 35.2 31.2 10.3 22 14.6 E 22 32 12 17 1014.1 - 0.0
27/12:00pm 33.6 29.7 10.9 25 13.3 ENE 22 37 12 20 1014.5 - 0.0
27/11:30am 32.5 29.1 10.5 26 12.7 NE 19 30 10 16 1014.9 - 0.0
27/11:00am 31.7 28.0 11.5 29 11.8 E 22 33 12 18 1015.2 - 0.0
27/10:30am 31.6 28.6 11.9 30 11.6 NE 19 28 10 15 1015.5 - 0.0
27/10:00am 30.8 27.7 12.2 32 11.0 E 20 30 11 16 1015.5 - 0.0
27/09:30am 30.3 27.5 12.7 34 10.5 ENE 19 26 10 14 1015.7 - 0.0
27/09:00am 28.8 26.0 13.1 38 9.3 ENE 20 26 11 14 1015.6 - 0.0
27/08:30am 28.0 25.2 13.1 39 8.8 ENE 20 26 11 14 1015.5 - 0.0
27/08:00am 27.1 23.5 13.1 42 8.3 ENE 24 33 13 18 1015.5 - 0.0
27/07:30am 26.4 23.7 13.5 45 7.6 ENE 20 28 11 15 1015.2 - 0.0
27/07:00am 25.7 23.6 13.5 46 7.2 E 17 26 9 14 1014.8 - 0.0
27/06:30am 25.2 23.1 12.4 45 7.4 E 15 19 8 10 1014.3 - 0.0
27/06:00am 25.4 23.0 12.6 45 7.4 E 17 24 9 13 1013.9 - 0.0
27/05:30am 25.6 22.7 12.4 43 7.6 E 19 24 10 13 1013.6 - 0.0
27/05:00am 25.7 23.3 12.5 44 7.7 ENE 17 22 9 12 1013.1 - 0.0
27/04:30am 25.9 23.8 12.4 43 7.8 E 15 24 8 13 1012.8 - 0.0
27/04:00am 26.3 24.2 12.4 42 8.1 E 15 20 8 11 1012.6 - 0.0
27/03:30am 26.6 24.1 12.3 41 8.3 ENE 17 20 9 11 1012.5 - 0.0
27/03:00am 26.9 24.5 12.5 40 8.4 ENE 17 22 9 12 1012.4 - 0.0
27/02:30am 27.4 24.6 12.6 40 8.7 NE 19 26 10 14 1012.5 - 0.0
27/02:00am 27.8 24.7 12.2 38 9.1 NE 20 32 11 17 1012.5 - 0.0
27/01:30am 28.3 24.0 12.2 37 9.4 NE 26 35 14 19 1012.3 - 0.0
27/01:00am 28.7 24.3 11.7 35 9.9 NE 26 43 14 23 1011.9 - 0.0
27/12:30am 29.3 23.2 11.8 34 10.2 ENE 35 48 19 26 1011.7 - 0.0
27/12:04am 29.7 22.8 11.7 33 10.5 ENE 39 57 21 31 1011.3 - 0.0
27/12:00am 29.8 22.6 11.8 33 10.5 ENE 41 57 22 31 1011.2 - 0.0
 
Date/Time
EST
Temp
°C
App
Temp
°C
Dew
Point
°C
Rel
Hum
%
Delta-T
°C
Wind Press
QNH
hPa
Press
MSL
hPa
Rain since
9am
mm
Dir  Spd
km/h
Gust
km/h
Spd
kts
Gust
kts
26/11:30pm 30.7 23.5 10.6 29 11.6 ENE 39 63 21 34 1011.1 - 0.0
26/11:14pm 31.1 25.9 10.4 28 11.9 E 28 46 15 25 1011.0 - 0.0
26/11:00pm 29.7 25.1 3.6 19 13.3 E 17 22 9 12 1011.0 - 0.0
26/10:30pm 28.3 24.6 -2.7 13 14.0 SW 7 11 4 6 1010.3 - 0.0
26/10:00pm 29.5 25.4 -2.9 12 14.7 SW 9 11 5 6 1010.5 - 0.0
26/09:30pm 30.2 26.2 -2.3 12 15.0 S 9 11 5 6 1010.6 - 0.0
26/09:00pm 31.1 26.9 -4.1 10 15.9 SSW 9 9 5 5 1010.5 - 0.0
26/08:30pm 31.7 27.5 -3.6 10 16.1 S 9 9 5 5 1010.2 - 0.0
26/08:00pm 33.4 29.6 -3.7 9 17.1 S 7 9 4 5 1009.8 - 0.0
26/07:30pm 34.4 30.1 -4.6 8 17.9 SSW 9 11 5 6 1009.4 - 0.0
26/07:00pm 36.3 31.2 -5.0 7 19.1 S 13 17 7 9 1008.9 - 0.0
26/06:30pm 37.3 31.9 -4.2 7 19.6 S 15 22 8 12 1008.4 - 0.0
26/06:00pm 38.2 32.5 -3.6 7 20.0 SW 17 24 9 13 1008.3 - 0.0
26/05:30pm 38.0 32.1 -5.8 6 20.2 S 17 28 9 15 1008.3 - 0.0
26/05:00pm 38.4 33.7 -5.5 6 20.4 SW 11 15 6 8 1008.3 - 0.0
26/04:30pm 39.0 32.8 -5.1 6 20.7 W 19 26 10 14 1008.4 - 0.0
26/04:00pm 38.3 33.9 -5.5 6 20.4 SSW 9 19 5 10 1008.6 - 0.0
26/03:30pm 38.4 33.7 -5.5 6 20.4 SSW 11 17 6 9 1008.9 - 0.0
26/03:00pm 37.9 31.8 -3.8 7 19.9 SSW 19 28 10 15 1009.1 - 0.0
26/02:30pm 38.0 32.1 -1.9 8 19.6 W 19 28 10 15 1009.5 - 0.0
26/02:00pm 37.8 33.1 -2.1 8 19.5 WSW 13 22 7 12 1009.9 - 0.0
26/01:30pm 38.2 34.1 -0.2 9 19.4 SSW 11 22 6 12 1010.2 - 0.0
26/01:00pm 37.7 33.2 -0.6 9 19.2 SSW 13 26 7 14 1010.6 - 0.0
26/12:30pm 36.9 32.9 0.3 10 18.5 WSW 11 26 6 14 1010.9 - 0.0
26/12:00pm 35.8 31.8 0.8 11 17.7 S 11 19 6 10 1011.2 - 0.0
26/11:30am 34.8 30.9 1.2 12 17.0 SSW 11 17 6 9 1011.6 - 0.0
26/11:00am 33.6 30.1 1.4 13 16.2 SE 9 15 5 8 1012.0 - 0.0
26/10:30am 32.2 29.1 0.3 13 15.6 S 6 13 3 7 1012.3 - 0.0
26/10:00am 31.7 27.2 -0.1 13 15.4 SSE 13 17 7 9 1012.4 - 0.0
26/09:30am 30.4 25.8 -1.1 13 14.9 ESE 13 17 7 9 1012.5 - 0.0
26/09:00am 29.7 24.8 -0.6 14 14.4 S 15 19 8 10 1012.5 - 0.0
26/08:30am 28.1 22.6 -1.9 14 13.7 SSE 17 22 9 12 1012.2 - 0.0
26/08:00am 27.4 21.6 -1.5 15 13.3 SSE 19 26 10 14 1012.2 - 0.0
26/07:30am 25.8 21.5 -1.9 16 12.5 S 11 15 6 8 1012.3 - 0.0
26/07:00am 25.2 20.8 -2.4 16 12.2 S 11 13 6 7 1012.0 - 0.0
26/06:30am 25.0 20.6 -2.5 16 12.2 SSE 11 15 6 8 1011.8 - 0.0
26/06:00am 25.6 20.8 -2.9 15 12.6 SSE 13 19 7 10 1011.7 - 0.0
26/05:30am 25.9 21.1 -2.7 15 12.7 SSE 13 19 7 10 1011.4 - 0.0
26/05:00am 26.4 21.6 -2.3 15 12.9 SSE 13 17 7 9 1011.0 - 0.0
26/04:30am 27.0 21.4 -2.7 14 13.3 SSE 17 22 9 12 1010.7 - 0.0
26/04:00am 27.3 21.7 -2.5 14 13.4 SSE 17 22 9 12 1010.7 - 0.0
26/03:30am 27.6 22.5 -2.3 14 13.5 SSE 15 20 8 11 1010.8 - 0.0
26/03:00am 28.1 23.0 -1.9 14 13.7 SSE 15 20 8 11 1010.9 - 0.0
26/02:30am 28.4 23.2 -2.6 13 14.1 SSE 15 22 8 12 1010.9 - 0.0
26/02:00am 28.6 23.4 -2.5 13 14.1 SSE 15 22 8 12 1011.1 - 0.0
26/01:30am 29.1 23.5 -3.2 12 14.6 SSE 17 22 9 12 1011.4 - 0.0
26/01:00am 29.7 23.7 -2.7 12 14.8 S 19 26 10 14 1011.6 - 0.0
26/12:30am 30.2 24.5 -3.5 11 15.3 S 17 24 9 13 1011.8 - 0.0
26/12:00am 30.7 24.7 -3.1 11 15.5 S 19 24 10 13 1011.9 - 0.0
 
Date/Time
EST
Temp
°C
App
Temp
°C
Dew
Point
°C
Rel
Hum
%
Delta-T
°C
Wind Press
QNH
hPa
Press
MSL
hPa
Rain since
9am
mm
Dir  Spd
km/h
Gust
km/h
Spd
kts
Gust
kts
25/11:30pm 31.3 24.8 -2.6 11 15.7 S 22 30 12 16 1012.0 - 0.0
25/11:00pm 31.6 25.8 -1.2 12 15.6 S 19 22 10 12 1011.9 - 0.0
25/10:30pm 32.3 26.6 -0.7 12 15.9 S 19 24 10 13 1011.8 - 0.0
25/10:00pm 33.0 27.4 -0.2 12 16.2 S 19 24 10 13 1011.8 - 0.0
25/09:30pm 33.5 27.4 0.2 12 16.4 S 22 28 12 15 1011.8 - 0.0
25/09:00pm 34.1 28.0 0.7 12 16.7 S 22 28 12 15 1011.6 - 0.0
25/08:30pm 34.8 28.6 0.0 11 17.3 S 22 32 12 17 1011.3 - 0.0
25/08:00pm 35.4 28.6 0.5 11 17.5 S 26 32 14 17 1011.1 - 0.0
25/07:30pm 36.0 29.2 0.9 11 17.8 S 26 33 14 18 1010.8 - 0.0
25/07:00pm 36.7 30.0 1.5 11 18.1 S 26 35 14 19 1010.3 - 0.0
25/06:30pm 37.9 31.0 2.4 11 18.6 SSW 28 37 15 20 1009.9 - 0.0

Other Formats:

Comma delimited format used in spreadsheet applications
http://www.bom.gov.au/fwo/IDQ60801/IDQ60801.95492.axf

JavaScript Object Notation format (JSON) in row-major order
http://www.bom.gov.au/fwo/IDQ60801/IDQ60801.95492.json